sensor_id;sensor_type;location;lat;lon;timestamp;P1;durP1;ratioP1;P2;durP2;ratioP2
37847;SDS011;23688;33.130;-117.188;2024-03-02T00:00:19;3.97;;;0.35;;
37847;SDS011;23688;33.130;-117.188;2024-03-02T00:02:50;1.08;;;0.30;;
37847;SDS011;23688;33.130;-117.188;2024-03-02T00:05:17;1.15;;;0.15;;
37847;SDS011;23688;33.130;-117.188;2024-03-02T00:07:46;1.15;;;0.30;;
37847;SDS011;23688;33.130;-117.188;2024-03-02T00:10:32;0.85;;;0.35;;
37847;SDS011;23688;33.130;-117.188;2024-03-02T00:13:12;1.90;;;0.30;;
37847;SDS011;23688;33.130;-117.188;2024-03-02T00:15:48;1.65;;;0.17;;
37847;SDS011;23688;33.130;-117.188;2024-03-02T00:18:24;0.98;;;0.20;;
37847;SDS011;23688;33.130;-117.188;2024-03-02T00:21:01;1.90;;;0.50;;
37847;SDS011;23688;33.130;-117.188;2024-03-02T00:23:30;0.30;;;0.30;;
37847;SDS011;23688;33.130;-117.188;2024-03-02T00:25:57;1.70;;;0.25;;
37847;SDS011;23688;33.130;-117.188;2024-03-02T00:28:29;0.65;;;0.20;;
37847;SDS011;23688;33.130;-117.188;2024-03-02T00:31:01;1.23;;;0.20;;
37847;SDS011;23688;33.130;-117.188;2024-03-02T00:33:49;1.10;;;0.40;;
37847;SDS011;23688;33.130;-117.188;2024-03-02T00:36:15;0.47;;;0.30;;
37847;SDS011;23688;33.130;-117.188;2024-03-02T00:38:48;1.10;;;0.20;;
37847;SDS011;23688;33.130;-117.188;2024-03-02T00:41:19;0.85;;;0.20;;
37847;SDS011;23688;33.130;-117.188;2024-03-02T00:44:10;0.43;;;0.30;;
37847;SDS011;23688;33.130;-117.188;2024-03-02T00:46:42;3.17;;;1.30;;
37847;SDS011;23688;33.130;-117.188;2024-03-02T00:49:12;2.00;;;0.20;;
37847;SDS011;23688;33.130;-117.188;2024-03-02T00:51:47;1.60;;;0.28;;
37847;SDS011;23688;33.130;-117.188;2024-03-02T00:54:14;0.35;;;0.20;;
37847;SDS011;23688;33.130;-117.188;2024-03-02T00:56:44;0.20;;;0.20;;
37847;SDS011;23688;33.130;-117.188;2024-03-02T00:59:15;0.43;;;0.20;;
37847;SDS011;23688;33.130;-117.188;2024-03-02T01:01:41;0.52;;;0.20;;
37847;SDS011;23688;33.130;-117.188;2024-03-02T01:04:08;1.27;;;0.30;;
37847;SDS011;23688;33.130;-117.188;2024-03-02T01:06:35;1.60;;;0.40;;
37847;SDS011;23688;33.130;-117.188;2024-03-02T01:09:02;2.53;;;0.20;;
37847;SDS011;23688;33.130;-117.188;2024-03-02T01:11:29;1.42;;;0.88;;
37847;SDS011;23688;33.130;-117.188;2024-03-02T01:13:55;2.20;;;0.20;;
37847;SDS011;23688;33.130;-117.188;2024-03-02T01:16:22;1.02;;;0.77;;
37847;SDS011;23688;33.130;-117.188;2024-03-02T01:18:48;1.73;;;0.63;;
37847;SDS011;23688;33.130;-117.188;2024-03-02T01:21:15;2.63;;;0.40;;
37847;SDS011;23688;33.130;-117.188;2024-03-02T01:23:41;3.53;;;0.40;;
37847;SDS011;23688;33.130;-117.188;2024-03-02T01:26:13;3.20;;;0.57;;
37847;SDS011;23688;33.130;-117.188;2024-03-02T01:28:39;1.10;;;0.47;;
37847;SDS011;23688;33.130;-117.188;2024-03-02T01:31:06;1.13;;;0.40;;
37847;SDS011;23688;33.130;-117.188;2024-03-02T01:33:32;0.88;;;0.28;;
37847;SDS011;23688;33.130;-117.188;2024-03-02T01:35:58;1.90;;;0.32;;
37847;SDS011;23688;33.130;-117.188;2024-03-02T01:38:25;1.05;;;0.40;;
37847;SDS011;23688;33.130;-117.188;2024-03-02T01:40:51;2.88;;;0.30;;
37847;SDS011;23688;33.130;-117.188;2024-03-02T01:43:18;1.83;;;0.28;;
37847;SDS011;23688;33.130;-117.188;2024-03-02T01:45:44;4.30;;;0.38;;
37847;SDS011;23688;33.130;-117.188;2024-03-02T01:48:10;0.20;;;0.20;;
37847;SDS011;23688;33.130;-117.188;2024-03-02T01:50:37;0.10;;;0.10;;
37847;SDS011;23688;33.130;-117.188;2024-03-02T01:53:03;3.10;;;0.30;;
37847;SDS011;23688;33.130;-117.188;2024-03-02T01:55:30;2.55;;;0.30;;
37847;SDS011;23688;33.130;-117.188;2024-03-02T01:57:56;0.98;;;0.30;;
37847;SDS011;23688;33.130;-117.188;2024-03-02T02:00:23;0.40;;;0.40;;
37847;SDS011;23688;33.130;-117.188;2024-03-02T02:02:51;2.85;;;0.50;;
37847;SDS011;23688;33.130;-117.188;2024-03-02T02:05:19;0.43;;;0.30;;
37847;SDS011;23688;33.130;-117.188;2024-03-02T02:07:45;0.43;;;0.20;;
37847;SDS011;23688;33.130;-117.188;2024-03-02T02:10:11;0.30;;;0.30;;
37847;SDS011;23688;33.130;-117.188;2024-03-02T02:12:38;0.10;;;0.10;;
37847;SDS011;23688;33.130;-117.188;2024-03-02T02:15:21;2.53;;;0.40;;
37847;SDS011;23688;33.130;-117.188;2024-03-02T02:17:48;0.50;;;0.20;;
37847;SDS011;23688;33.130;-117.188;2024-03-02T02:20:15;12.07;;;0.98;;
37847;SDS011;23688;33.130;-117.188;2024-03-02T02:22:52;1.00;;;0.38;;
37847;SDS011;23688;33.130;-117.188;2024-03-02T02:25:22;3.35;;;0.47;;
37847;SDS011;23688;33.130;-117.188;2024-03-02T02:27:48;0.82;;;0.43;;
37847;SDS011;23688;33.130;-117.188;2024-03-02T02:30:18;1.50;;;0.47;;
37847;SDS011;23688;33.130;-117.188;2024-03-02T02:32:56;2.50;;;0.90;;
37847;SDS011;23688;33.130;-117.188;2024-03-02T02:35:23;1.50;;;0.60;;
37847;SDS011;23688;33.130;-117.188;2024-03-02T02:37:50;3.15;;;1.30;;
37847;SDS011;23688;33.130;-117.188;2024-03-02T02:40:17;2.25;;;1.00;;
37847;SDS011;23688;33.130;-117.188;2024-03-02T02:42:47;1.15;;;0.70;;
37847;SDS011;23688;33.130;-117.188;2024-03-02T02:45:13;1.88;;;0.90;;
37847;SDS011;23688;33.130;-117.188;2024-03-02T02:47:42;1.42;;;0.60;;
37847;SDS011;23688;33.130;-117.188;2024-03-02T02:50:08;0.70;;;0.60;;
37847;SDS011;23688;33.130;-117.188;2024-03-02T02:52:37;1.15;;;0.45;;
37847;SDS011;23688;33.130;-117.188;2024-03-02T02:55:11;1.33;;;0.57;;
37847;SDS011;23688;33.130;-117.188;2024-03-02T02:57:41;0.50;;;0.40;;
37847;SDS011;23688;33.130;-117.188;2024-03-02T03:00:12;1.10;;;0.47;;
37847;SDS011;23688;33.130;-117.188;2024-03-02T03:02:41;3.15;;;0.40;;
37847;SDS011;23688;33.130;-117.188;2024-03-02T03:05:09;0.30;;;0.28;;
37847;SDS011;23688;33.130;-117.188;2024-03-02T03:07:36;5.20;;;0.50;;
37847;SDS011;23688;33.130;-117.188;2024-03-02T03:10:05;1.05;;;0.38;;
37847;SDS011;23688;33.130;-117.188;2024-03-02T03:12:33;1.45;;;0.60;;
37847;SDS011;23688;33.130;-117.188;2024-03-02T03:15:00;1.27;;;0.50;;
37847;SDS011;23688;33.130;-117.188;2024-03-02T03:17:27;3.10;;;0.70;;
37847;SDS011;23688;33.130;-117.188;2024-03-02T03:19:54;0.52;;;0.52;;
37847;SDS011;23688;33.130;-117.188;2024-03-02T03:22:20;1.55;;;1.00;;
37847;SDS011;23688;33.130;-117.188;2024-03-02T03:24:46;4.22;;;1.52;;
37847;SDS011;23688;33.130;-117.188;2024-03-02T03:27:12;1.58;;;0.73;;
37847;SDS011;23688;33.130;-117.188;2024-03-02T03:29:39;0.95;;;0.52;;
37847;SDS011;23688;33.130;-117.188;2024-03-02T03:32:05;1.17;;;0.30;;
37847;SDS011;23688;33.130;-117.188;2024-03-02T03:34:34;3.40;;;0.40;;
37847;SDS011;23688;33.130;-117.188;2024-03-02T03:37:00;0.68;;;0.47;;
37847;SDS011;23688;33.130;-117.188;2024-03-02T03:39:27;1.35;;;0.43;;
37847;SDS011;23688;33.130;-117.188;2024-03-02T03:41:54;0.47;;;0.30;;
37847;SDS011;23688;33.130;-117.188;2024-03-02T03:44:20;0.90;;;0.30;;
37847;SDS011;23688;33.130;-117.188;2024-03-02T03:46:46;1.48;;;0.30;;
37847;SDS011;23688;33.130;-117.188;2024-03-02T03:49:13;0.98;;;0.30;;
37847;SDS011;23688;33.130;-117.188;2024-03-02T03:51:39;0.35;;;0.22;;
37847;SDS011;23688;33.130;-117.188;2024-03-02T03:54:05;1.35;;;0.47;;
37847;SDS011;23688;33.130;-117.188;2024-03-02T03:56:32;2.30;;;0.22;;
37847;SDS011;23688;33.130;-117.188;2024-03-02T03:58:58;1.05;;;0.30;;
37847;SDS011;23688;33.130;-117.188;2024-03-02T04:01:25;0.73;;;0.20;;
37847;SDS011;23688;33.130;-117.188;2024-03-02T04:03:51;2.38;;;0.30;;
37847;SDS011;23688;33.130;-117.188;2024-03-02T04:06:18;0.85;;;0.40;;
37847;SDS011;23688;33.130;-117.188;2024-03-02T04:08:44;1.63;;;0.30;;
37847;SDS011;23688;33.130;-117.188;2024-03-02T04:11:10;1.55;;;0.40;;
37847;SDS011;23688;33.130;-117.188;2024-03-02T04:13:37;4.20;;;0.50;;
37847;SDS011;23688;33.130;-117.188;2024-03-02T04:16:06;2.30;;;0.30;;
37847;SDS011;23688;33.130;-117.188;2024-03-02T04:21:01;0.52;;;0.40;;
37847;SDS011;23688;33.130;-117.188;2024-03-02T04:23:28;4.22;;;0.47;;
37847;SDS011;23688;33.130;-117.188;2024-03-02T04:25:54;0.40;;;0.30;;
37847;SDS011;23688;33.130;-117.188;2024-03-02T04:28:21;3.25;;;0.60;;
37847;SDS011;23688;33.130;-117.188;2024-03-02T04:30:47;0.60;;;0.50;;
37847;SDS011;23688;33.130;-117.188;2024-03-02T04:33:14;1.42;;;0.40;;
37847;SDS011;23688;33.130;-117.188;2024-03-02T04:35:40;0.63;;;0.50;;
37847;SDS011;23688;33.130;-117.188;2024-03-02T04:38:07;2.58;;;0.45;;
37847;SDS011;23688;33.130;-117.188;2024-03-02T04:40:34;3.55;;;0.57;;
37847;SDS011;23688;33.130;-117.188;2024-03-02T04:43:02;0.52;;;0.40;;
37847;SDS011;23688;33.130;-117.188;2024-03-02T04:45:29;2.83;;;0.65;;
37847;SDS011;23688;33.130;-117.188;2024-03-02T04:47:55;2.22;;;0.60;;
37847;SDS011;23688;33.130;-117.188;2024-03-02T04:50:22;0.63;;;0.50;;
37847;SDS011;23688;33.130;-117.188;2024-03-02T04:52:49;2.30;;;0.70;;
37847;SDS011;23688;33.130;-117.188;2024-03-02T04:55:15;4.78;;;0.70;;
37847;SDS011;23688;33.130;-117.188;2024-03-02T04:57:41;2.83;;;0.43;;
37847;SDS011;23688;33.130;-117.188;2024-03-02T05:00:08;2.80;;;0.63;;
37847;SDS011;23688;33.130;-117.188;2024-03-02T05:02:35;2.47;;;0.50;;
37847;SDS011;23688;33.130;-117.188;2024-03-02T05:05:02;2.83;;;0.50;;
37847;SDS011;23688;33.130;-117.188;2024-03-02T05:07:28;2.25;;;0.70;;
37847;SDS011;23688;33.130;-117.188;2024-03-02T05:09:55;2.20;;;0.40;;
37847;SDS011;23688;33.130;-117.188;2024-03-02T05:12:22;2.38;;;0.40;;
37847;SDS011;23688;33.130;-117.188;2024-03-02T05:15:20;1.25;;;0.40;;
37847;SDS011;23688;33.130;-117.188;2024-03-02T05:17:47;3.05;;;0.50;;
37847;SDS011;23688;33.130;-117.188;2024-03-02T05:20:13;2.17;;;0.65;;
37847;SDS011;23688;33.130;-117.188;2024-03-02T05:22:40;7.00;;;0.70;;
37847;SDS011;23688;33.130;-117.188;2024-03-02T05:25:07;1.83;;;0.68;;
37847;SDS011;23688;33.130;-117.188;2024-03-02T05:27:37;1.40;;;0.60;;
37847;SDS011;23688;33.130;-117.188;2024-03-02T05:30:04;1.02;;;0.50;;
37847;SDS011;23688;33.130;-117.188;2024-03-02T05:32:31;1.98;;;0.55;;
37847;SDS011;23688;33.130;-117.188;2024-03-02T05:34:59;1.10;;;0.70;;
37847;SDS011;23688;33.130;-117.188;2024-03-02T05:37:25;2.78;;;0.52;;
37847;SDS011;23688;33.130;-117.188;2024-03-02T05:39:53;1.27;;;0.70;;
37847;SDS011;23688;33.130;-117.188;2024-03-02T05:42:23;0.85;;;0.50;;
37847;SDS011;23688;33.130;-117.188;2024-03-02T05:44:49;3.40;;;0.82;;
37847;SDS011;23688;33.130;-117.188;2024-03-02T05:47:16;2.45;;;0.60;;
37847;SDS011;23688;33.130;-117.188;2024-03-02T05:49:42;1.02;;;0.70;;
37847;SDS011;23688;33.130;-117.188;2024-03-02T05:52:08;2.63;;;0.80;;
37847;SDS011;23688;33.130;-117.188;2024-03-02T05:54:36;1.33;;;0.75;;
37847;SDS011;23688;33.130;-117.188;2024-03-02T05:57:02;1.33;;;0.98;;
37847;SDS011;23688;33.130;-117.188;2024-03-02T05:59:42;1.92;;;0.60;;
37847;SDS011;23688;33.130;-117.188;2024-03-02T06:02:11;0.75;;;0.35;;
37847;SDS011;23688;33.130;-117.188;2024-03-02T06:04:38;1.17;;;0.52;;
37847;SDS011;23688;33.130;-117.188;2024-03-02T06:07:04;0.57;;;0.50;;
37847;SDS011;23688;33.130;-117.188;2024-03-02T06:09:30;2.60;;;0.60;;
37847;SDS011;23688;33.130;-117.188;2024-03-02T06:11:57;1.15;;;0.50;;
37847;SDS011;23688;33.130;-117.188;2024-03-02T06:14:25;4.75;;;0.80;;
37847;SDS011;23688;33.130;-117.188;2024-03-02T06:16:52;1.58;;;0.70;;
37847;SDS011;23688;33.130;-117.188;2024-03-02T06:19:18;1.08;;;0.57;;
37847;SDS011;23688;33.130;-117.188;2024-03-02T06:21:44;1.30;;;0.50;;
37847;SDS011;23688;33.130;-117.188;2024-03-02T06:24:10;3.85;;;0.70;;
37847;SDS011;23688;33.130;-117.188;2024-03-02T06:26:37;1.27;;;0.60;;
37847;SDS011;23688;33.130;-117.188;2024-03-02T06:29:04;3.20;;;0.50;;
37847;SDS011;23688;33.130;-117.188;2024-03-02T06:31:31;1.77;;;0.43;;
37847;SDS011;23688;33.130;-117.188;2024-03-02T06:33:57;1.95;;;1.23;;
37847;SDS011;23688;33.130;-117.188;2024-03-02T06:36:23;2.35;;;0.43;;
37847;SDS011;23688;33.130;-117.188;2024-03-02T06:38:50;0.50;;;0.50;;
37847;SDS011;23688;33.130;-117.188;2024-03-02T06:41:16;2.13;;;0.50;;
37847;SDS011;23688;33.130;-117.188;2024-03-02T06:43:42;1.35;;;0.55;;
37847;SDS011;23688;33.130;-117.188;2024-03-02T06:46:09;1.35;;;0.50;;
37847;SDS011;23688;33.130;-117.188;2024-03-02T06:48:35;1.38;;;0.68;;
37847;SDS011;23688;33.130;-117.188;2024-03-02T06:51:01;1.27;;;0.55;;
37847;SDS011;23688;33.130;-117.188;2024-03-02T06:53:28;2.22;;;0.50;;
37847;SDS011;23688;33.130;-117.188;2024-03-02T06:55:55;2.90;;;0.95;;
37847;SDS011;23688;33.130;-117.188;2024-03-02T06:58:21;2.47;;;0.55;;
37847;SDS011;23688;33.130;-117.188;2024-03-02T07:00:48;2.42;;;0.50;;
37847;SDS011;23688;33.130;-117.188;2024-03-02T07:03:14;2.30;;;0.45;;
37847;SDS011;23688;33.130;-117.188;2024-03-02T07:05:40;1.20;;;0.38;;
37847;SDS011;23688;33.130;-117.188;2024-03-02T07:08:07;1.27;;;0.40;;
37847;SDS011;23688;33.130;-117.188;2024-03-02T07:10:33;1.23;;;0.57;;
37847;SDS011;23688;33.130;-117.188;2024-03-02T07:13:00;1.75;;;0.52;;
37847;SDS011;23688;33.130;-117.188;2024-03-02T07:15:26;2.92;;;0.35;;
37847;SDS011;23688;33.130;-117.188;2024-03-02T07:17:52;1.13;;;0.63;;
37847;SDS011;23688;33.130;-117.188;2024-03-02T07:20:19;2.22;;;0.45;;
37847;SDS011;23688;33.130;-117.188;2024-03-02T07:22:45;0.95;;;0.50;;
37847;SDS011;23688;33.130;-117.188;2024-03-02T07:25:11;2.08;;;0.50;;
37847;SDS011;23688;33.130;-117.188;2024-03-02T07:27:38;4.93;;;0.75;;
37847;SDS011;23688;33.130;-117.188;2024-03-02T07:30:06;2.15;;;1.25;;
37847;SDS011;23688;33.130;-117.188;2024-03-02T07:32:32;2.75;;;0.50;;
37847;SDS011;23688;33.130;-117.188;2024-03-02T07:34:59;1.95;;;0.80;;
37847;SDS011;23688;33.130;-117.188;2024-03-02T07:37:26;2.15;;;0.90;;
37847;SDS011;23688;33.130;-117.188;2024-03-02T07:39:53;2.17;;;0.80;;
37847;SDS011;23688;33.130;-117.188;2024-03-02T07:42:19;0.73;;;0.60;;
37847;SDS011;23688;33.130;-117.188;2024-03-02T07:44:46;2.35;;;0.70;;
37847;SDS011;23688;33.130;-117.188;2024-03-02T07:47:12;0.93;;;0.63;;
37847;SDS011;23688;33.130;-117.188;2024-03-02T07:49:38;0.68;;;0.60;;
37847;SDS011;23688;33.130;-117.188;2024-03-02T07:52:05;0.50;;;0.50;;
37847;SDS011;23688;33.130;-117.188;2024-03-02T07:54:32;1.67;;;0.77;;
37847;SDS011;23688;33.130;-117.188;2024-03-02T07:56:59;1.67;;;0.93;;
37847;SDS011;23688;33.130;-117.188;2024-03-02T07:59:25;2.83;;;0.77;;
37847;SDS011;23688;33.130;-117.188;2024-03-02T08:01:52;4.10;;;0.90;;
37847;SDS011;23688;33.130;-117.188;2024-03-02T08:04:20;0.77;;;0.77;;
37847;SDS011;23688;33.130;-117.188;2024-03-02T08:06:47;3.30;;;0.95;;
37847;SDS011;23688;33.130;-117.188;2024-03-02T08:09:13;1.73;;;1.08;;
37847;SDS011;23688;33.130;-117.188;2024-03-02T08:11:40;0.85;;;0.80;;
37847;SDS011;23688;33.130;-117.188;2024-03-02T08:14:06;2.38;;;1.30;;
37847;SDS011;23688;33.130;-117.188;2024-03-02T08:16:32;4.05;;;1.10;;
37847;SDS011;23688;33.130;-117.188;2024-03-02T08:18:59;2.35;;;0.80;;
37847;SDS011;23688;33.130;-117.188;2024-03-02T08:21:25;0.95;;;0.70;;
37847;SDS011;23688;33.130;-117.188;2024-03-02T08:23:56;1.65;;;0.70;;
37847;SDS011;23688;33.130;-117.188;2024-03-02T08:26:23;1.63;;;0.82;;
37847;SDS011;23688;33.130;-117.188;2024-03-02T08:28:50;1.95;;;1.02;;
37847;SDS011;23688;33.130;-117.188;2024-03-02T08:31:16;3.30;;;1.40;;
37847;SDS011;23688;33.130;-117.188;2024-03-02T08:33:42;6.90;;;1.02;;
37847;SDS011;23688;33.130;-117.188;2024-03-02T08:36:08;2.22;;;1.02;;
37847;SDS011;23688;33.130;-117.188;2024-03-02T08:38:35;3.08;;;0.70;;
37847;SDS011;23688;33.130;-117.188;2024-03-02T08:41:01;0.93;;;0.73;;
37847;SDS011;23688;33.130;-117.188;2024-03-02T08:43:29;3.10;;;1.00;;
37847;SDS011;23688;33.130;-117.188;2024-03-02T08:45:55;4.90;;;0.80;;
37847;SDS011;23688;33.130;-117.188;2024-03-02T08:48:21;2.47;;;1.20;;
37847;SDS011;23688;33.130;-117.188;2024-03-02T08:50:48;5.80;;;1.35;;
37847;SDS011;23688;33.130;-117.188;2024-03-02T08:53:14;5.00;;;1.17;;
37847;SDS011;23688;33.130;-117.188;2024-03-02T08:55:46;4.22;;;1.25;;
37847;SDS011;23688;33.130;-117.188;2024-03-02T08:58:13;3.95;;;1.58;;
37847;SDS011;23688;33.130;-117.188;2024-03-02T09:00:41;3.33;;;1.45;;
37847;SDS011;23688;33.130;-117.188;2024-03-02T09:03:07;3.25;;;1.40;;
37847;SDS011;23688;33.130;-117.188;2024-03-02T09:05:34;3.72;;;1.67;;
37847;SDS011;23688;33.130;-117.188;2024-03-02T09:08:01;2.60;;;1.60;;
37847;SDS011;23688;33.130;-117.188;2024-03-02T09:10:29;2.53;;;1.80;;
37847;SDS011;23688;33.130;-117.188;2024-03-02T09:12:55;2.50;;;2.05;;
37847;SDS011;23688;33.130;-117.188;2024-03-02T09:15:21;4.30;;;2.40;;
37847;SDS011;23688;33.130;-117.188;2024-03-02T09:17:48;5.50;;;3.33;;
37847;SDS011;23688;33.130;-117.188;2024-03-02T09:20:14;4.57;;;3.08;;
37847;SDS011;23688;33.130;-117.188;2024-03-02T09:22:42;5.07;;;3.92;;
37847;SDS011;23688;33.130;-117.188;2024-03-02T09:25:08;4.18;;;2.63;;
37847;SDS011;23688;33.130;-117.188;2024-03-02T09:27:38;5.20;;;2.80;;
37847;SDS011;23688;33.130;-117.188;2024-03-02T09:30:07;7.35;;;3.72;;
37847;SDS011;23688;33.130;-117.188;2024-03-02T09:32:37;3.72;;;3.13;;
37847;SDS011;23688;33.130;-117.188;2024-03-02T09:35:04;4.28;;;2.85;;
37847;SDS011;23688;33.130;-117.188;2024-03-02T09:37:30;4.15;;;2.15;;
37847;SDS011;23688;33.130;-117.188;2024-03-02T09:39:57;4.43;;;2.80;;
37847;SDS011;23688;33.130;-117.188;2024-03-02T09:42:25;4.18;;;2.33;;
37847;SDS011;23688;33.130;-117.188;2024-03-02T09:44:51;3.65;;;2.60;;
37847;SDS011;23688;33.130;-117.188;2024-03-02T09:47:18;2.22;;;2.03;;
37847;SDS011;23688;33.130;-117.188;2024-03-02T09:49:45;2.33;;;1.52;;
37847;SDS011;23688;33.130;-117.188;2024-03-02T09:52:11;4.40;;;2.03;;
37847;SDS011;23688;33.130;-117.188;2024-03-02T09:54:40;4.53;;;1.50;;
37847;SDS011;23688;33.130;-117.188;2024-03-02T09:57:06;5.25;;;1.60;;
37847;SDS011;23688;33.130;-117.188;2024-03-02T09:59:33;3.53;;;1.40;;
37847;SDS011;23688;33.130;-117.188;2024-03-02T10:02:01;1.88;;;1.25;;
37847;SDS011;23688;33.130;-117.188;2024-03-02T10:04:28;4.00;;;1.67;;
37847;SDS011;23688;33.130;-117.188;2024-03-02T10:09:39;2.50;;;1.60;;
37847;SDS011;23688;33.130;-117.188;2024-03-02T10:12:11;4.45;;;1.40;;
37847;SDS011;23688;33.130;-117.188;2024-03-02T10:14:42;3.22;;;2.05;;
37847;SDS011;23688;33.130;-117.188;2024-03-02T10:17:09;5.57;;;1.83;;
37847;SDS011;23688;33.130;-117.188;2024-03-02T10:19:40;3.70;;;1.20;;
37847;SDS011;23688;33.130;-117.188;2024-03-02T10:22:08;1.75;;;1.58;;
37847;SDS011;23688;33.130;-117.188;2024-03-02T10:27:09;3.75;;;1.90;;
37847;SDS011;23688;33.130;-117.188;2024-03-02T10:29:40;1.00;;;0.88;;
37847;SDS011;23688;33.130;-117.188;2024-03-02T10:32:09;1.00;;;0.73;;
37847;SDS011;23688;33.130;-117.188;2024-03-02T10:34:39;0.80;;;0.80;;
37847;SDS011;23688;33.130;-117.188;2024-03-02T10:37:06;2.15;;;0.70;;
37847;SDS011;23688;33.130;-117.188;2024-03-02T10:39:36;0.85;;;0.85;;
37847;SDS011;23688;33.130;-117.188;2024-03-02T10:42:07;1.48;;;0.75;;
37847;SDS011;23688;33.130;-117.188;2024-03-02T10:44:34;1.58;;;0.80;;
37847;SDS011;23688;33.130;-117.188;2024-03-02T10:47:01;1.90;;;0.88;;
37847;SDS011;23688;33.130;-117.188;2024-03-02T10:49:29;4.32;;;0.70;;
37847;SDS011;23688;33.130;-117.188;2024-03-02T10:51:57;1.13;;;0.73;;
37847;SDS011;23688;33.130;-117.188;2024-03-02T10:54:24;6.60;;;1.10;;
37847;SDS011;23688;33.130;-117.188;2024-03-02T10:57:01;3.55;;;1.05;;
37847;SDS011;23688;33.130;-117.188;2024-03-02T11:02:03;2.85;;;1.05;;
37847;SDS011;23688;33.130;-117.188;2024-03-02T11:04:32;3.97;;;1.08;;
37847;SDS011;23688;33.130;-117.188;2024-03-02T11:07:07;3.40;;;1.10;;
37847;SDS011;23688;33.130;-117.188;2024-03-02T11:09:41;2.17;;;1.48;;
37847;SDS011;23688;33.130;-117.188;2024-03-02T11:12:13;3.35;;;1.27;;
37847;SDS011;23688;33.130;-117.188;2024-03-02T11:14:45;5.45;;;1.35;;
37847;SDS011;23688;33.130;-117.188;2024-03-02T11:17:13;2.00;;;1.33;;
37847;SDS011;23688;33.130;-117.188;2024-03-02T11:19:43;4.05;;;1.27;;
37847;SDS011;23688;33.130;-117.188;2024-03-02T11:22:11;2.57;;;1.40;;
37847;SDS011;23688;33.130;-117.188;2024-03-02T11:24:39;5.78;;;1.60;;
37847;SDS011;23688;33.130;-117.188;2024-03-02T11:27:13;1.55;;;1.40;;
37847;SDS011;23688;33.130;-117.188;2024-03-02T11:32:17;2.38;;;1.70;;
37847;SDS011;23688;33.130;-117.188;2024-03-02T11:34:49;1.98;;;1.55;;
37847;SDS011;23688;33.130;-117.188;2024-03-02T11:37:17;3.80;;;1.70;;
37847;SDS011;23688;33.130;-117.188;2024-03-02T11:39:44;6.03;;;1.30;;
37847;SDS011;23688;33.130;-117.188;2024-03-02T11:42:12;16.05;;;1.83;;
37847;SDS011;23688;33.130;-117.188;2024-03-02T11:44:40;1.83;;;1.40;;
37847;SDS011;23688;33.130;-117.188;2024-03-02T11:47:15;1.63;;;1.52;;
37847;SDS011;23688;33.130;-117.188;2024-03-02T11:49:48;2.30;;;1.73;;
37847;SDS011;23688;33.130;-117.188;2024-03-02T11:52:17;2.90;;;1.65;;
37847;SDS011;23688;33.130;-117.188;2024-03-02T11:54:46;2.17;;;1.60;;
37847;SDS011;23688;33.130;-117.188;2024-03-02T11:57:20;2.33;;;1.65;;
37847;SDS011;23688;33.130;-117.188;2024-03-02T11:59:51;5.93;;;0.95;;
37847;SDS011;23688;33.130;-117.188;2024-03-02T12:02:20;5.10;;;1.00;;
37847;SDS011;23688;33.130;-117.188;2024-03-02T12:04:48;2.05;;;0.80;;
37847;SDS011;23688;33.130;-117.188;2024-03-02T12:07:21;1.20;;;0.77;;
37847;SDS011;23688;33.130;-117.188;2024-03-02T12:09:49;1.23;;;0.77;;
37847;SDS011;23688;33.130;-117.188;2024-03-02T12:12:26;1.48;;;0.82;;
37847;SDS011;23688;33.130;-117.188;2024-03-02T12:14:53;2.15;;;1.08;;
37847;SDS011;23688;33.130;-117.188;2024-03-02T12:17:21;10.87;;;2.20;;
37847;SDS011;23688;33.130;-117.188;2024-03-02T12:19:48;3.25;;;2.00;;
37847;SDS011;23688;33.130;-117.188;2024-03-02T12:22:14;7.22;;;2.53;;
37847;SDS011;23688;33.130;-117.188;2024-03-02T12:24:44;6.57;;;3.10;;
37847;SDS011;23688;33.130;-117.188;2024-03-02T12:27:14;6.15;;;2.88;;
37847;SDS011;23688;33.130;-117.188;2024-03-02T12:29:41;5.05;;;3.60;;
37847;SDS011;23688;33.130;-117.188;2024-03-02T12:32:08;7.07;;;3.80;;
37847;SDS011;23688;33.130;-117.188;2024-03-02T12:34:35;5.13;;;3.15;;
37847;SDS011;23688;33.130;-117.188;2024-03-02T12:37:03;5.28;;;3.10;;
37847;SDS011;23688;33.130;-117.188;2024-03-02T12:39:29;4.50;;;2.83;;
37847;SDS011;23688;33.130;-117.188;2024-03-02T12:41:58;5.65;;;3.22;;
37847;SDS011;23688;33.130;-117.188;2024-03-02T12:44:24;4.97;;;2.65;;
37847;SDS011;23688;33.130;-117.188;2024-03-02T12:46:50;3.15;;;2.20;;
37847;SDS011;23688;33.130;-117.188;2024-03-02T12:49:21;4.15;;;1.90;;
37847;SDS011;23688;33.130;-117.188;2024-03-02T12:51:48;3.97;;;1.67;;
37847;SDS011;23688;33.130;-117.188;2024-03-02T12:54:21;4.63;;;1.30;;
37847;SDS011;23688;33.130;-117.188;2024-03-02T12:56:50;1.95;;;1.10;;
37847;SDS011;23688;33.130;-117.188;2024-03-02T12:59:20;2.20;;;1.10;;
37847;SDS011;23688;33.130;-117.188;2024-03-02T13:01:51;3.67;;;1.42;;
37847;SDS011;23688;33.130;-117.188;2024-03-02T13:04:21;1.83;;;1.30;;
37847;SDS011;23688;33.130;-117.188;2024-03-02T13:06:49;4.18;;;1.50;;
37847;SDS011;23688;33.130;-117.188;2024-03-02T13:09:16;2.53;;;1.42;;
37847;SDS011;23688;33.130;-117.188;2024-03-02T13:11:43;2.33;;;1.60;;
37847;SDS011;23688;33.130;-117.188;2024-03-02T13:14:13;2.15;;;1.35;;
37847;SDS011;23688;33.130;-117.188;2024-03-02T13:16:39;3.15;;;1.40;;
37847;SDS011;23688;33.130;-117.188;2024-03-02T13:19:10;2.33;;;1.92;;
37847;SDS011;23688;33.130;-117.188;2024-03-02T13:21:37;2.63;;;1.70;;
37847;SDS011;23688;33.130;-117.188;2024-03-02T13:24:04;1.73;;;1.50;;
37847;SDS011;23688;33.130;-117.188;2024-03-02T13:26:31;6.38;;;1.80;;
37847;SDS011;23688;33.130;-117.188;2024-03-02T13:28:59;2.83;;;1.75;;
37847;SDS011;23688;33.130;-117.188;2024-03-02T13:31:25;1.95;;;1.75;;
37847;SDS011;23688;33.130;-117.188;2024-03-02T13:33:52;3.28;;;1.70;;
37847;SDS011;23688;33.130;-117.188;2024-03-02T13:36:18;2.28;;;1.85;;
37847;SDS011;23688;33.130;-117.188;2024-03-02T13:38:44;1.17;;;1.08;;
37847;SDS011;23688;33.130;-117.188;2024-03-02T13:41:11;1.83;;;1.10;;
37847;SDS011;23688;33.130;-117.188;2024-03-02T13:43:37;3.33;;;0.98;;
37847;SDS011;23688;33.130;-117.188;2024-03-02T13:46:04;2.42;;;0.80;;
37847;SDS011;23688;33.130;-117.188;2024-03-02T13:48:31;1.15;;;0.80;;
37847;SDS011;23688;33.130;-117.188;2024-03-02T13:50:58;1.05;;;0.95;;
37847;SDS011;23688;33.130;-117.188;2024-03-02T13:53:24;1.27;;;0.60;;
37847;SDS011;23688;33.130;-117.188;2024-03-02T13:55:51;2.10;;;0.57;;
37847;SDS011;23688;33.130;-117.188;2024-03-02T13:58:17;0.80;;;0.50;;
37847;SDS011;23688;33.130;-117.188;2024-03-02T14:00:45;0.82;;;0.65;;
37847;SDS011;23688;33.130;-117.188;2024-03-02T14:03:12;0.20;;;0.20;;
37847;SDS011;23688;33.130;-117.188;2024-03-02T14:05:39;0.28;;;0.28;;
37847;SDS011;23688;33.130;-117.188;2024-03-02T14:08:05;1.17;;;0.30;;
37847;SDS011;23688;33.130;-117.188;2024-03-02T14:10:31;0.95;;;0.47;;
37847;SDS011;23688;33.130;-117.188;2024-03-02T14:12:58;1.05;;;0.30;;
37847;SDS011;23688;33.130;-117.188;2024-03-02T14:15:24;0.20;;;0.20;;
37847;SDS011;23688;33.130;-117.188;2024-03-02T14:17:50;0.50;;;0.30;;
37847;SDS011;23688;33.130;-117.188;2024-03-02T14:20:17;1.63;;;0.20;;
37847;SDS011;23688;33.130;-117.188;2024-03-02T14:22:47;0.40;;;0.30;;
37847;SDS011;23688;33.130;-117.188;2024-03-02T14:25:17;1.30;;;0.60;;